Time;durP1;ratioP1;P1;durP2;ratioP2;P2;SDS_P1;SDS_P2;PMS_P1;PMS_P2;Temp;Humidity;BMP_temperature;BMP_pressure;BME280_temperature;BME280_humidity;BME280_pressure;Samples;Min_cycle;Max_cycle;Signal;HPM_P1;HPM_P2
2022/07/18 00:01:32;;;;;;;2.17;1.60;;;;;;;12.98;89.03;101358.97;5093167;28;20043;-68
2022/07/18 00:03:58;;;;;;;2.23;1.47;;;;;;;13.02;89.51;101357.66;5093607;28;20038;-66
2022/07/18 00:06:23;;;;;;;3.13;2.13;;;;;;;13.09;89.60;101360.50;5075741;28;20039;-66
2022/07/18 00:08:49;;;;;;;1.57;1.47;;;;;;;13.13;89.73;101361.84;5093451;28;20036;-68
2022/07/18 00:11:14;;;;;;;2.03;1.27;;;;;;;13.15;89.77;101359.84;5093570;28;20456;-68
2022/07/18 00:13:40;;;;;;;2.53;1.27;;;;;;;13.16;89.52;101350.81;5074885;28;20047;-66
2022/07/18 00:16:06;;;;;;;1.87;1.60;;;;;;;13.19;89.39;101350.53;5092321;28;20433;-66
2022/07/18 00:18:31;;;;;;;2.27;1.63;;;;;;;13.23;89.20;101341.16;5092620;28;20038;-67
2022/07/18 00:20:57;;;;;;;2.50;1.47;;;;;;;13.26;90.07;101346.19;5092681;28;20411;-67
2022/07/18 00:23:22;;;;;;;2.70;1.77;;;;;;;13.21;89.38;101348.53;5092785;28;20035;-69
2022/07/18 00:25:48;;;;;;;5.80;2.00;;;;;;;13.08;89.08;101328.59;5074984;28;20031;-68
2022/07/18 00:28:14;;;;;;;1.50;1.40;;;;;;;13.08;88.95;101340.13;5092943;28;20055;-69
2022/07/18 00:30:40;;;;;;;2.13;1.33;;;;;;;13.05;89.25;101344.97;5092993;28;20523;-67
2022/07/18 00:33:07;;;;;;;2.90;1.53;;;;;;;12.98;89.75;101345.59;5094059;28;20032;-70
2022/07/18 00:35:32;;;;;;;4.47;1.67;;;;;;;12.93;90.55;101345.25;5093694;28;20031;-67
2022/07/18 00:37:58;;;;;;;4.70;1.77;;;;;;;12.82;90.79;101342.91;5093971;28;20058;-68
2022/07/18 00:40:23;;;;;;;1.67;1.57;;;;;;;12.75;90.89;101343.72;5092647;28;20032;-66
2022/07/18 00:42:49;;;;;;;2.30;1.63;;;;;;;12.61;91.29;101339.81;5108184;28;20410;-69
2022/07/18 00:45:14;;;;;;;2.50;2.00;;;;;;;12.56;91.42;101348.31;5073934;28;20036;-68
2022/07/18 00:47:40;;;;;;;1.50;1.40;;;;;;;12.46;92.08;101342.28;5092184;28;20101;-67
2022/07/18 00:50:07;;;;;;;2.77;1.60;;;;;;;12.43;92.37;101342.59;5092253;28;20032;-66
2022/07/18 00:52:34;;;;;;;4.00;1.83;;;;;;;12.42;92.59;101346.25;5091881;28;20402;-69
2022/07/18 00:55:00;;;;;;;2.60;1.70;;;;;;;12.36;92.85;101336.22;5091911;28;20051;-66
2022/07/18 00:57:26;;;;;;;3.30;1.90;;;;;;;12.43;92.86;101344.41;5091885;28;20032;-69
2022/07/18 01:02:36;;;;;;;2.47;1.60;;;;;;;12.45;92.70;101351.31;5091988;28;20041;-68
2022/07/18 01:05:02;;;;;;;3.03;1.80;;;;;;;12.42;93.22;101343.56;5091903;28;20039;-68
2022/07/18 01:07:28;;;;;;;3.70;1.40;;;;;;;12.50;92.68;101350.81;5091948;28;20109;-69
2022/07/18 01:09:54;;;;;;;5.87;2.00;;;;;;;12.50;93.08;101348.97;5091676;28;20515;-66
2022/07/18 01:12:19;;;;;;;4.40;1.50;;;;;;;12.55;92.82;101341.31;5091870;28;20039;-67
2022/07/18 01:14:46;;;;;;;2.63;1.70;;;;;;;12.58;92.84;101342.81;5091964;28;20028;-68
2022/07/18 01:17:17;;;;;;;2.90;1.80;;;;;;;12.49;92.97;101325.09;5091909;28;20040;-67
2022/07/18 01:19:43;;;;;;;2.30;1.73;;;;;;;12.62;92.62;101334.31;5107537;28;20052;-66
2022/07/18 01:22:10;;;;;;;3.57;1.57;;;;;;;12.63;92.63;101349.34;5108744;28;20085;-68
2022/07/18 01:24:37;;;;;;;2.97;1.67;;;;;;;12.62;92.78;101347.69;5114985;28;20020;-68
2022/07/18 01:27:06;;;;;;;2.77;1.50;;;;;;;12.67;92.79;101350.69;5108321;28;20047;-69
2022/07/18 01:29:33;;;;;;;2.73;1.70;;;;;;;12.69;92.59;101354.03;5074123;28;20036;-65
2022/07/18 01:32:07;;;;;;;7.17;1.90;;;;;;;12.68;92.38;101348.84;5091727;28;20047;-65
2022/07/18 01:34:32;;;;;;;3.57;1.50;;;;;;;12.66;92.63;101349.03;5093353;28;20435;-69
2022/07/18 01:36:59;;;;;;;4.40;1.70;;;;;;;12.68;92.29;101347.03;5091704;28;20039;-66
2022/07/18 01:39:24;;;;;;;5.70;1.63;;;;;;;12.70;92.28;101342.34;5091232;28;20051;-69
2022/07/18 01:41:58;;;;;;;2.03;1.60;;;;;;;12.71;92.38;101336.00;5091668;28;20399;-66
2022/07/18 01:44:24;;;;;;;3.63;2.30;;;;;;;12.79;92.21;101342.41;5091627;28;20502;-68
2022/07/18 01:46:50;;;;;;;1.70;1.60;;;;;;;12.82;91.93;101329.53;5072929;28;20039;-68
2022/07/18 01:49:16;;;;;;;3.23;1.80;;;;;;;12.78;91.44;101324.69;5091262;28;20402;-68
2022/07/18 01:51:46;;;;;;;3.20;1.67;;;;;;;12.89;91.40;101332.38;5091480;28;20032;-69
2022/07/18 01:54:12;;;;;;;2.10;1.70;;;;;;;12.80;91.44;101318.19;5098219;28;20032;-68
2022/07/18 01:56:37;;;;;;;3.53;1.70;;;;;;;12.96;91.32;101336.06;5099071;28;20038;-65
2022/07/18 01:59:03;;;;;;;1.30;1.20;;;;;;;13.00;91.29;101324.03;5081282;28;20100;-68
2022/07/18 02:01:29;;;;;;;2.23;1.73;;;;;;;13.07;91.46;101338.44;5096601;28;20036;-69
2022/07/18 02:03:55;;;;;;;1.60;1.50;;;;;;;13.09;91.34;101338.28;5094737;28;20036;-68
2022/07/18 02:06:20;;;;;;;1.93;1.60;;;;;;;13.13;91.13;101339.63;5094852;28;20135;-67
2022/07/18 02:08:46;;;;;;;1.60;1.50;;;;;;;13.18;91.19;101340.81;5094868;28;20039;-65
2022/07/18 02:11:11;;;;;;;1.70;1.60;;;;;;;13.27;90.94;101339.81;5094887;28;20059;-69
2022/07/18 02:13:37;;;;;;;2.37;1.50;;;;;;;13.29;90.57;101328.97;5094687;28;20062;-66
2022/07/18 02:16:05;;;;;;;3.67;1.55;;;;;;;13.40;89.92;101341.19;5094965;28;20028;-67
2022/07/18 02:18:32;;;;;;;3.23;1.60;;;;;;;13.38;89.72;101337.84;5099067;28;20445;-67
2022/07/18 02:21:01;;;;;;;2.23;1.40;;;;;;;13.31;90.29;101338.50;5098222;28;20032;-67
2022/07/18 02:23:27;;;;;;;1.73;1.23;;;;;;;13.28;90.76;101336.16;5098696;28;20028;-69
2022/07/18 02:25:53;;;;;;;3.27;1.63;;;;;;;13.23;91.16;101334.97;5096505;28;20032;-66
2022/07/18 02:28:23;;;;;;;3.77;1.60;;;;;;;13.19;90.58;101339.81;5094351;28;20503;-69
2022/07/18 02:30:48;;;;;;;2.43;1.23;;;;;;;13.16;90.72;101348.16;5094341;28;20040;-67
2022/07/18 02:33:15;;;;;;;2.30;1.90;;;;;;;13.12;90.64;101348.66;5094804;28;20027;-68
2022/07/18 02:35:42;;;;;;;3.70;1.50;;;;;;;13.05;90.88;101348.47;5094646;28;20085;-66
2022/07/18 02:38:08;;;;;;;2.67;1.50;;;;;;;13.02;90.90;101348.81;5094327;28;20032;-67
2022/07/18 02:40:33;;;;;;;3.47;1.80;;;;;;;13.02;91.05;101349.66;5094373;28;20505;-67
2022/07/18 02:42:59;;;;;;;3.33;1.50;;;;;;;13.08;91.00;101350.81;5076106;28;20034;-69
2022/07/18 02:45:25;;;;;;;1.87;1.77;;;;;;;13.14;90.57;101346.66;5093965;28;20058;-69
2022/07/18 02:47:51;;;;;;;1.97;1.50;;;;;;;13.26;90.18;101346.19;5094107;28;20036;-68
2022/07/18 02:50:16;;;;;;;2.90;1.30;;;;;;;13.38;89.39;101353.91;5093863;28;20059;-69
2022/07/18 02:52:42;;;;;;;1.83;1.40;;;;;;;13.48;89.31;101352.72;5094158;28;20459;-67
2022/07/18 02:55:09;;;;;;;1.43;1.20;;;;;;;13.61;88.92;101360.25;5093995;28;20089;-67
2022/07/18 02:57:36;;;;;;;1.55;1.30;;;;;;;13.70;88.35;101345.03;5093833;28;20032;-67
2022/07/18 03:00:05;;;;;;;1.30;1.20;;;;;;;13.84;88.18;101355.88;5093717;28;20376;-66
2022/07/18 03:02:55;;;;;;;2.40;1.43;;;;;;;13.93;87.99;101359.41;5093610;28;20405;-69
2022/07/18 03:05:21;;;;;;;8.20;1.87;;;;;;;14.00;87.91;101356.88;5093837;28;20044;-69
2022/07/18 03:07:47;;;;;;;4.37;1.50;;;;;;;14.06;87.79;101358.84;5093631;28;20040;-69
2022/07/18 03:10:12;;;;;;;1.37;1.27;;;;;;;14.08;87.60;101373.75;5093553;28;20101;-66
2022/07/18 03:12:40;;;;;;;1.90;1.30;;;;;;;14.08;87.59;101360.34;5093483;28;20109;-68
2022/07/18 03:15:06;;;;;;;2.22;1.90;;;;;;;14.21;88.11;101373.22;5093202;28;20036;-70
2022/07/18 03:17:31;;;;;;;2.60;1.70;;;;;;;15.44;83.72;101363.56;5093575;28;20044;-69
2022/07/18 03:19:57;;;;;;;1.50;1.30;;;;;;;16.23;79.98;101356.81;5093425;28;20119;-67
2022/07/18 03:22:22;;;;;;;1.43;1.33;;;;;;;16.31;77.95;101353.19;5093332;28;20051;-66
2022/07/18 03:24:48;;;;;;;2.23;1.53;;;;;;;16.10;78.67;101357.44;5075061;28;20329;-66
2022/07/18 03:27:16;;;;;;;1.77;1.53;;;;;;;16.00;78.73;101356.06;5075035;28;20059;-67
2022/07/18 03:29:41;;;;;;;4.40;1.52;;;;;;;15.96;79.09;101352.06;5094331;28;20047;-68
2022/07/18 03:32:07;;;;;;;2.67;1.47;;;;;;;16.16;79.24;101361.25;5094463;28;20040;-66
2022/07/18 03:34:32;;;;;;;2.03;1.87;;;;;;;16.55;77.59;101357.44;5094184;28;20038;-68
2022/07/18 03:36:58;;;;;;;1.50;1.10;;;;;;;16.69;76.52;101368.22;5093633;28;20487;-69
2022/07/18 03:39:23;;;;;;;1.40;1.23;;;;;;;16.50;77.11;101368.78;5093531;28;20090;-65
2022/07/18 03:41:51;;;;;;;1.40;1.30;;;;;;;16.38;77.08;101368.38;5092668;28;20063;-70
2022/07/18 03:44:17;;;;;;;2.55;1.50;;;;;;;16.20;78.56;101367.94;5092900;28;20032;-69
2022/07/18 03:46:43;;;;;;;1.60;1.47;;;;;;;15.95;79.08;101363.84;5074835;28;20046;-68
2022/07/18 03:49:08;;;;;;;1.50;1.30;;;;;;;15.89;80.09;101368.06;5092976;28;20035;-67
2022/07/18 03:51:35;;;;;;;2.40;1.63;;;;;;;16.13;79.01;101376.91;5093686;28;20437;-66
2022/07/18 03:54:00;;;;;;;1.67;1.50;;;;;;;16.38;77.87;101371.06;5093041;28;20054;-68
2022/07/18 03:56:26;;;;;;;2.90;1.07;;;;;;;16.39;76.84;101375.44;5092784;28;20043;-68
2022/07/18 03:58:51;;;;;;;1.97;1.10;;;;;;;16.25;77.84;101375.44;5092564;28;20085;-68
2022/07/18 04:01:17;;;;;;;2.40;2.20;;;;;;;16.12;77.30;101365.31;5092653;28;20072;-71
2022/07/18 04:03:42;;;;;;;1.40;1.20;;;;;;;16.06;77.71;101379.50;5092859;28;20032;-69
2022/07/18 04:06:08;;;;;;;2.63;1.23;;;;;;;16.01;78.47;101376.53;5092809;28;20027;-69
2022/07/18 04:08:33;;;;;;;1.37;1.00;;;;;;;15.92;79.56;101370.41;5092622;28;20060;-68
2022/07/18 04:10:59;;;;;;;1.33;1.00;;;;;;;15.86;79.55;101370.28;5092475;28;20443;-66
2022/07/18 04:13:24;;;;;;;7.73;4.17;;;;;;;15.87;79.83;101377.31;5092319;28;20701;-68
2022/07/18 04:15:50;;;;;;;1.40;1.30;;;;;;;15.77;80.43;101369.53;5092060;28;20134;-68
2022/07/18 04:18:15;;;;;;;2.03;1.23;;;;;;;15.67;81.26;101371.66;5092486;28;20032;-67
2022/07/18 04:20:41;;;;;;;1.57;1.47;;;;;;;15.58;82.51;101361.94;5092657;28;20082;-65
2022/07/18 04:23:09;;;;;;;2.70;1.10;;;;;;;15.56;82.00;101372.84;5092206;28;20177;-70
2022/07/18 04:25:40;;;;;;;2.28;1.00;;;;;;;15.63;81.45;101384.59;5092232;28;20092;-69
2022/07/18 04:28:09;;;;;;;2.97;1.07;;;;;;;15.59;81.72;101375.22;5092149;28;20151;-67
2022/07/18 04:30:36;;;;;;;2.00;1.20;;;;;;;15.54;81.90;101377.56;5092100;28;20507;-67
2022/07/18 04:33:05;;;;;;;1.70;1.27;;;;;;;15.56;82.41;101383.59;5092179;28;20601;-69
2022/07/18 04:35:31;;;;;;;2.00;1.53;;;;;;;15.56;82.31;101386.28;5092260;28;20043;-69
2022/07/18 04:37:57;;;;;;;1.97;1.60;;;;;;;15.49;81.62;101382.66;5092123;28;20036;-70
2022/07/18 04:40:23;;;;;;;1.93;1.73;;;;;;;15.43;81.90;101386.06;5074041;28;20036;-69
2022/07/18 04:42:49;;;;;;;3.63;1.40;;;;;;;15.41;81.73;101382.72;5091936;28;20166;-67
2022/07/18 04:45:15;;;;;;;3.87;1.60;;;;;;;15.50;81.95;101392.38;5092201;28;20040;-70
2022/07/18 04:47:41;;;;;;;1.57;1.47;;;;;;;15.50;82.65;101387.00;5091926;28;20124;-67
2022/07/18 04:50:07;;;;;;;1.93;1.50;;;;;;;15.65;80.76;101384.41;5092021;28;20064;-67
2022/07/18 04:52:40;;;;;;;1.70;1.57;;;;;;;15.85;80.06;101376.66;5092033;28;20039;-72
2022/07/18 04:55:08;;;;;;;1.43;1.20;;;;;;;16.07;79.59;101384.69;5091789;28;20035;-68
2022/07/18 04:57:34;;;;;;;3.70;1.17;;;;;;;16.13;79.29;101384.97;5091711;28;20470;-66
2022/07/18 05:00:01;;;;;;;2.63;1.43;;;;;;;16.30;78.20;101384.63;5092058;28;20040;-65
2022/07/18 05:02:26;;;;;;;2.27;1.60;;;;;;;16.37;77.38;101385.53;5092026;28;20063;-68
2022/07/18 05:04:53;;;;;;;1.60;1.20;;;;;;;16.48;76.12;101384.25;5091847;28;20071;-66
2022/07/18 05:07:18;;;;;;;4.13;1.83;;;;;;;16.47;76.69;101379.03;5092085;28;20536;-67
2022/07/18 05:09:44;;;;;;;2.73;1.60;;;;;;;16.59;76.58;101382.94;5092041;28;20118;-70
2022/07/18 05:12:09;;;;;;;4.17;1.87;;;;;;;16.63;76.33;101377.00;5091793;28;20090;-69
2022/07/18 05:14:35;;;;;;;2.70;1.30;;;;;;;16.58;75.55;101381.28;5092102;28;20118;-68
2022/07/18 05:17:00;;;;;;;2.30;1.27;;;;;;;16.54;74.24;101385.38;5092169;28;20479;-70
2022/07/18 05:19:26;;;;;;;1.30;1.20;;;;;;;16.46;74.54;101388.13;5091621;28;20040;-66
2022/07/18 05:21:51;;;;;;;3.23;1.83;;;;;;;16.43;75.26;101392.84;5092003;28;20076;-66
2022/07/18 05:24:17;;;;;;;3.60;1.40;;;;;;;16.42;74.54;101388.50;5091508;28;20032;-68
2022/07/18 05:26:42;;;;;;;1.57;1.47;;;;;;;16.47;73.42;101389.78;5092834;28;20040;-67
2022/07/18 05:29:12;;;;;;;2.87;1.57;;;;;;;16.49;73.66;101390.47;5095625;28;20150;-70
2022/07/18 05:31:39;;;;;;;1.80;1.40;;;;;;;16.64;73.25;101391.28;5095441;28;20395;-69
2022/07/18 05:34:05;;;;;;;1.60;1.43;;;;;;;16.67;73.65;101391.78;5095488;28;20089;-68
2022/07/18 05:36:30;;;;;;;1.63;1.50;;;;;;;16.59;74.38;101388.31;5095571;28;20035;-68
2022/07/18 05:38:56;;;;;;;1.43;1.33;;;;;;;16.51;75.58;101396.50;5077178;28;20050;-68
2022/07/18 05:41:22;;;;;;;1.83;1.60;;;;;;;16.39;76.59;101394.25;5095441;28;20086;-67
2022/07/18 05:43:47;;;;;;;4.27;1.60;;;;;;;16.33;76.96;101395.00;5095360;28;20475;-70
2022/07/18 05:46:13;;;;;;;2.10;1.70;;;;;;;16.32;78.10;101398.72;5077330;28;20078;-68
2022/07/18 05:48:38;;;;;;;3.33;1.23;;;;;;;16.20;78.24;101392.13;5095062;28;20040;-66
2022/07/18 05:51:06;;;;;;;2.70;1.53;;;;;;;16.06;79.27;101384.88;5095169;28;20032;-69
2022/07/18 05:53:32;;;;;;;3.70;1.65;;;;;;;16.19;78.16;101390.47;5094876;28;20105;-70
2022/07/18 05:55:57;;;;;;;2.70;1.60;;;;;;;16.19;77.19;101387.78;5095023;28;20048;-70
2022/07/18 05:58:23;;;;;;;2.13;1.53;;;;;;;16.27;78.43;101401.13;5095287;28;20425;-69
2022/07/18 06:00:48;;;;;;;2.90;1.70;;;;;;;16.27;77.81;101394.91;5095087;28;20035;-69
2022/07/18 06:03:14;;;;;;;2.53;1.47;;;;;;;16.32;78.63;101393.31;5094900;28;20032;-68
2022/07/18 06:05:40;;;;;;;4.37;0.97;;;;;;;16.38;78.70;101397.97;5094917;28;20048;-68
2022/07/18 06:08:06;;;;;;;4.87;2.07;;;;;;;16.42;77.98;101393.88;5094692;28;20043;-69
2022/07/18 06:10:31;;;;;;;1.43;1.33;;;;;;;16.55;78.24;101395.09;5094837;28;20459;-68
2022/07/18 06:12:57;;;;;;;1.90;1.57;;;;;;;16.59;78.00;101391.00;5094492;28;20050;-69
2022/07/18 06:15:23;;;;;;;4.70;1.70;;;;;;;16.68;78.41;101388.06;5094689;28;20543;-66
2022/07/18 06:17:49;;;;;;;2.67;1.40;;;;;;;16.82;77.36;101386.38;5094638;28;20044;-68
2022/07/18 06:20:14;;;;;;;3.57;1.67;;;;;;;16.91;76.76;101393.31;5094781;28;20036;-66
2022/07/18 06:22:40;;;;;;;2.33;1.67;;;;;;;16.84;76.93;101397.78;5094440;28;20475;-67
2022/07/18 06:25:06;;;;;;;3.53;1.40;;;;;;;16.88;76.59;101400.94;5094465;28;20039;-66
2022/07/18 06:27:33;;;;;;;3.07;1.87;;;;;;;16.86;77.53;101395.75;5076103;28;20542;-67
2022/07/18 06:29:59;;;;;;;2.73;1.83;;;;;;;16.90;77.88;101402.41;5094283;28;20410;-72
2022/07/18 06:32:25;;;;;;;2.00;1.40;;;;;;;16.78;78.53;101385.09;5076230;28;20032;-73
2022/07/18 06:34:50;;;;;;;6.33;3.33;;;;;;;16.87;77.85;101401.97;5094749;28;20039;-68
2022/07/18 06:37:16;;;;;;;3.00;2.10;;;;;;;16.87;78.45;101397.41;5094218;28;20040;-66
2022/07/18 06:39:41;;;;;;;3.03;1.80;;;;;;;16.81;78.59;101391.94;5093889;28;20391;-67
2022/07/18 06:42:07;;;;;;;3.10;1.77;;;;;;;16.83;77.92;101395.28;5094498;28;20082;-67
2022/07/18 06:44:32;;;;;;;5.10;1.67;;;;;;;16.89;78.74;101403.44;5094117;28;20449;-66
2022/07/18 06:46:59;;;;;;;2.47;1.53;;;;;;;16.94;77.42;101398.31;5094018;28;20544;-69
2022/07/18 06:49:25;;;;;;;4.03;1.40;;;;;;;16.96;77.86;101406.19;5093928;28;20398;-71
2022/07/18 06:51:51;;;;;;;2.73;1.70;;;;;;;16.95;76.66;101399.16;5109965;28;20094;-76
2022/07/18 06:54:17;;;;;;;1.85;0.90;;;;;;;17.01;76.35;101399.22;5093929;28;20036;-69
2022/07/18 06:56:42;;;;;;;2.80;1.98;;;;;;;17.15;74.37;101394.84;5099200;28;20078;-69
2022/07/18 06:59:08;;;;;;;3.80;2.25;;;;;;;17.42;73.41;101397.81;5097037;28;20039;-67
2022/07/18 07:01:33;;;;;;;2.88;1.52;;;;;;;17.67;72.06;101392.88;5096309;28;20040;-69
2022/07/18 07:03:59;;;;;;;3.40;1.20;;;;;;;17.95;70.50;101401.84;5077283;28;20084;-68
2022/07/18 07:06:25;;;;;;;3.25;1.65;;;;;;;18.05;68.62;101396.09;5076133;28;20139;-69
2022/07/18 07:08:50;;;;;;;4.65;1.45;;;;;;;18.15;68.63;101396.59;5093756;28;20058;-72
2022/07/18 07:11:16;;;;;;;3.42;1.25;;;;;;;18.10;67.10;101397.19;5107981;28;20008;-69
2022/07/18 07:13:42;;;;;;;3.95;1.25;;;;;;;18.12;68.27;101397.81;5096386;28;20036;-67
2022/07/18 07:16:07;;;;;;;1.98;1.80;;;;;;;18.03;67.02;101404.38;5115536;28;20053;-72
2022/07/18 07:18:33;;;;;;;1.35;1.23;;;;;;;17.97;66.76;101402.47;5109200;28;20035;-70
2022/07/18 07:20:59;;;;;;;7.13;1.52;;;;;;;17.89;66.57;101395.34;5103773;28;20522;-65
2022/07/18 07:23:25;;;;;;;3.53;1.30;;;;;;;17.86;67.05;101394.91;5079875;28;20040;-66
2022/07/18 07:25:50;;;;;;;3.70;0.90;;;;;;;17.83;66.02;101398.00;5100812;28;20044;-68
2022/07/18 07:28:18;;;;;;;1.83;1.48;;;;;;;17.79;68.14;101402.13;5094658;28;20105;-66
2022/07/18 07:30:44;;;;;;;3.03;1.90;;;;;;;17.87;69.07;101407.34;5093668;28;20050;-66
2022/07/18 07:33:10;;;;;;;2.67;1.30;;;;;;;17.81;70.56;101408.13;5093232;28;20115;-66
2022/07/18 07:35:35;;;;;;;1.63;1.30;;;;;;;17.53;71.67;101406.19;5093134;28;20036;-69
2022/07/18 07:38:01;;;;;;;2.25;1.13;;;;;;;17.37;72.58;101403.78;5095830;28;20027;-74
2022/07/18 07:40:29;;;;;;;1.00;0.80;;;;;;;17.30;72.73;101413.63;5094088;28;20063;-69
2022/07/18 07:43:05;;;;;;;3.33;1.30;;;;;;;17.21;72.64;101412.91;5093682;28;20043;-69
2022/07/18 07:45:34;;;;;;;3.20;0.95;;;;;;;17.24;72.93;101415.22;5092928;28;20075;-74
2022/07/18 07:48:22;;;;;;;;;;;;;;;17.38;72.33;101413.53;5093516;28;20047;-75
2022/07/18 07:50:48;;;;;;;4.50;1.65;;;;;;;17.27;70.78;101387.09;5090653;28;20340;-74
2022/07/18 07:53:13;;;;;;;4.30;1.00;;;;;;;17.57;71.63;101418.25;5075427;28;20036;-72
2022/07/18 07:55:39;;;;;;;1.48;1.05;;;;;;;17.63;71.44;101424.72;5092656;28;20384;-70
2022/07/18 07:58:05;;;;;;;3.17;1.10;;;;;;;17.56;70.83;101424.66;5092548;28;20093;-68
2022/07/18 08:00:31;;;;;;;2.95;1.45;;;;;;;17.58;71.36;101428.00;5092276;28;20036;-69
2022/07/18 08:03:07;;;;;;;2.35;0.90;;;;;;;17.65;70.71;101420.00;5093446;28;20036;-67
2022/07/18 08:05:35;;;;;;;3.75;1.20;;;;;;;17.61;71.23;101422.22;5099680;28;20083;-70
2022/07/18 08:08:01;;;;;;;1.27;1.05;;;;;;;17.71;70.81;101427.34;5094442;28;20138;-69
2022/07/18 08:10:28;;;;;;;1.77;1.30;;;;;;;17.86;68.42;101440.72;5092709;28;20127;-67
2022/07/18 08:12:54;;;;;;;1.42;0.85;;;;;;;17.81;67.80;101424.31;5092676;28;20032;-70
2022/07/18 08:15:19;;;;;;;1.50;0.95;;;;;;;17.79;67.68;101419.13;5092338;28;20052;-67
2022/07/18 08:17:45;;;;;;;3.75;0.90;;;;;;;17.80;66.15;101426.16;5092913;28;20043;-68
2022/07/18 08:20:11;;;;;;;2.67;0.82;;;;;;;18.05;68.34;101423.88;5092614;28;20115;-69
2022/07/18 08:22:55;;;;;;;1.65;0.90;;;;;;;18.33;68.65;101420.34;5092660;28;20503;-69
2022/07/18 08:25:21;;;;;;;3.55;1.02;;;;;;;18.52;66.99;101425.88;5092284;28;20059;-67
2022/07/18 08:27:49;;;;;;;5.00;1.00;;;;;;;18.41;66.19;101433.69;5092257;28;20087;-67
2022/07/18 08:30:40;;;;;;;10.88;1.40;;;;;;;18.36;64.84;101430.75;5092396;28;20054;-68
2022/07/18 08:33:07;;;;;;;9.18;2.00;;;;;;;18.32;65.58;101434.88;5092334;28;20039;-68
2022/07/18 08:35:33;;;;;;;2.50;1.20;;;;;;;18.19;64.63;101430.19;5092284;28;20071;-68
2022/07/18 08:38:00;;;;;;;5.22;0.90;;;;;;;18.24;65.74;101436.69;5092164;28;20044;-68
2022/07/18 08:40:26;;;;;;;1.65;0.95;;;;;;;18.34;64.83;101430.13;5091770;28;20055;-69
2022/07/18 08:42:53;;;;;;;2.58;0.75;;;;;;;18.40;63.77;101432.00;5092335;28;20040;-70
2022/07/18 08:45:23;;;;;;;3.77;1.13;;;;;;;18.40;64.12;101422.06;5092031;28;20043;-68
2022/07/18 08:47:50;;;;;;;3.08;1.02;;;;;;;18.60;63.64;101432.16;5091966;28;20450;-66
2022/07/18 08:50:16;;;;;;;4.82;0.90;;;;;;;18.64;63.94;101431.56;5091992;28;20448;-69
2022/07/18 08:52:41;;;;;;;2.17;0.85;;;;;;;18.67;63.80;101430.34;5091954;28;20060;-70
2022/07/18 08:55:08;;;;;;;1.90;0.55;;;;;;;18.57;62.70;101427.97;5092699;28;20036;-69
2022/07/18 08:57:33;;;;;;;4.28;1.10;;;;;;;18.51;63.78;101431.47;5093798;28;20376;-69
2022/07/18 08:59:59;;;;;;;2.75;0.95;;;;;;;18.64;63.17;101439.66;5095457;28;20236;-65
2022/07/18 09:02:27;;;;;;;2.55;1.08;;;;;;;18.69;62.64;101429.09;5098108;28;20032;-69
2022/07/18 09:04:53;;;;;;;;;;;;;;;18.88;62.64;101438.34;5097568;28;20036;-71
2022/07/18 09:07:28;;;;;;;2.50;0.60;;;;;;;18.96;61.38;101431.94;5095905;28;19939;-68
2022/07/18 09:09:59;;;;;;;1.35;1.20;;;;;;;19.02;60.29;101428.41;5095919;28;20051;-68
2022/07/18 09:12:26;;;;;;;1.23;0.80;;;;;;;19.08;60.61;101431.16;5095907;28;20089;-68
2022/07/18 09:14:53;;;;;;;1.13;0.57;;;;;;;19.17;59.10;101424.53;5095779;28;20082;-69
2022/07/18 09:17:24;;;;;;;0.40;0.38;;;;;;;19.24;58.87;101429.13;5095580;28;20066;-68
2022/07/18 09:19:58;;;;;;;1.67;0.55;;;;;;;19.24;58.83;101421.84;5095488;28;20038;-67
2022/07/18 09:22:25;;;;;;;1.30;0.70;;;;;;;19.17;58.76;101423.72;5095667;28;20432;-67
2022/07/18 09:24:52;;;;;;;1.35;0.90;;;;;;;19.35;58.25;101432.06;5095629;28;20040;-68
2022/07/18 09:27:24;;;;;;;3.45;0.75;;;;;;;19.40;57.42;101428.78;5095496;28;20062;-70
2022/07/18 09:30:09;;;;;;;2.88;0.50;;;;;;;19.42;58.00;101435.63;5095699;28;20043;-68
2022/07/18 09:32:35;;;;;;;4.30;0.95;;;;;;;19.48;57.80;101432.09;5077722;28;20043;-68
2022/07/18 09:35:15;;;;;;;5.10;1.50;;;;;;;19.56;58.26;101449.19;5095798;28;20124;-69
2022/07/18 09:37:40;;;;;;;8.02;3.75;;;;;;;19.44;58.46;101436.25;5095512;28;20042;-69
2022/07/18 09:40:24;;;;;;;6.07;1.27;;;;;;;19.35;57.59;101431.22;5095067;28;20142;-67
2022/07/18 09:42:55;;;;;;;5.13;0.90;;;;;;;19.01;59.14;101418.66;5076811;28;20040;-69
2022/07/18 09:45:26;;;;;;;3.55;1.88;;;;;;;19.05;58.89;101431.53;5095156;28;20040;-67
2022/07/18 09:47:57;;;;;;;1.98;0.82;;;;;;;19.03;58.65;101432.78;5094659;28;20036;-69
2022/07/18 09:50:36;;;;;;;1.23;0.90;;;;;;;19.12;58.71;101440.53;5094843;28;20036;-67
2022/07/18 09:53:26;;;;;;;3.25;1.00;;;;;;;19.08;58.35;101441.09;5094922;28;20063;-70
2022/07/18 09:55:53;;;;;;;1.42;0.88;;;;;;;19.18;58.55;101431.59;5094785;28;20036;-69
2022/07/18 09:58:28;;;;;;;2.45;1.27;;;;;;;19.30;58.89;101439.94;5095014;28;20028;-67
2022/07/18 10:00:55;;;;;;;1.58;1.00;;;;;;;19.44;58.52;101446.22;5094812;28;20126;-69
2022/07/18 10:03:22;;;;;;;0.82;0.77;;;;;;;19.49;60.16;101439.16;5094643;28;20403;-68
2022/07/18 10:05:49;;;;;;;2.17;0.55;;;;;;;19.50;61.82;101446.22;5094342;28;20113;-71
2022/07/18 10:08:18;;;;;;;0.77;0.73;;;;;;;19.53;62.48;101445.03;5094871;28;20089;-71
2022/07/18 10:10:45;;;;;;;2.67;1.00;;;;;;;19.27;62.30;101445.75;5094741;28;20063;-69
2022/07/18 10:13:11;;;;;;;2.47;0.82;;;;;;;19.30;61.21;101442.63;5093452;28;20047;-68
2022/07/18 10:15:39;;;;;;;2.00;0.82;;;;;;;19.26;60.85;101454.06;5094576;28;20032;-69
2022/07/18 10:18:07;;;;;;;2.08;0.80;;;;;;;19.10;61.35;101444.47;5094564;28;20051;-68
2022/07/18 10:20:37;;;;;;;2.42;1.27;;;;;;;19.14;60.73;101445.72;5094599;28;20111;-68
2022/07/18 10:23:23;;;;;;;1.58;0.55;;;;;;;19.11;59.70;101463.16;5094543;28;20032;-67
2022/07/18 10:26:25;;;;;;;0.70;0.70;;;;;;;19.09;60.49;101448.19;5094429;28;20537;-67
2022/07/18 10:28:59;;;;;;;3.95;1.00;;;;;;;19.11;59.08;101440.72;5011689;28;20073;-68
2022/07/18 10:31:28;;;;;;;6.05;1.02;;;;;;;19.32;59.44;101454.06;5082649;28;20139;-68
2022/07/18 10:34:08;;;;;;;1.67;0.63;;;;;;;19.29;59.39;101454.47;5094493;28;20143;-68
2022/07/18 10:37:02;;;;;;;2.60;1.33;;;;;;;19.33;60.01;101447.63;5094213;28;20415;-68
2022/07/18 10:39:46;;;;;;;2.17;1.20;;;;;;;19.28;59.98;101452.81;5093933;28;20485;-69
2022/07/18 10:42:14;;;;;;;3.05;0.95;;;;;;;19.42;59.74;101454.53;5094109;28;20047;-68
2022/07/18 10:44:40;;;;;;;0.70;0.70;;;;;;;19.36;60.62;101449.91;5093995;28;20162;-67
2022/07/18 10:47:17;;;;;;;3.72;1.23;;;;;;;19.40;60.78;101456.63;5093900;28;20043;-69
2022/07/18 10:49:48;;;;;;;2.28;1.75;;;;;;;19.35;61.64;101461.75;5093918;28;20043;-66
2022/07/18 10:52:23;;;;;;;1.48;1.10;;;;;;;19.23;61.52;101455.28;5093880;28;20119;-67
2022/07/18 10:55:08;;;;;;;2.05;0.90;;;;;;;19.22;63.26;101459.03;5093822;28;20089;-67
2022/07/18 10:57:39;;;;;;;1.67;1.00;;;;;;;19.11;62.44;101471.25;5093697;28;20044;-67
2022/07/18 11:00:17;;;;;;;3.60;1.90;;;;;;;18.95;64.04;101451.88;5075738;28;20036;-67
2022/07/18 11:02:44;;;;;;;12.37;2.33;;;;;;;19.11;63.09;101463.16;5093761;28;20028;-68
2022/07/18 11:05:24;;;;;;;4.13;1.77;;;;;;;19.07;63.08;101469.97;5094382;28;20270;-69
2022/07/18 11:07:59;;;;;;;3.97;1.25;;;;;;;19.23;63.59;101468.81;5093611;28;20097;-70
2022/07/18 11:13:31;;;;;;;6.72;2.72;;;;;;;19.60;61.82;101466.63;5093789;28;20055;-66
2022/07/18 11:16:14;;;;;;;2.60;1.00;;;;;;;19.49;61.46;101463.47;5093617;28;20036;-68
2022/07/18 11:18:39;;;;;;;4.65;1.25;;;;;;;19.65;61.77;101470.38;5093465;28;20077;-67
2022/07/18 11:21:32;;;;;;;3.15;1.30;;;;;;;19.71;61.47;101475.00;5093109;28;20059;-69
2022/07/18 11:24:06;;;;;;;2.83;1.35;;;;;;;19.61;60.98;101473.72;5089883;28;20126;-68
2022/07/18 11:26:32;;;;;;;3.10;0.95;;;;;;;19.39;60.78;101460.34;5093599;28;20063;-68
2022/07/18 11:29:08;;;;;;;1.67;0.82;;;;;;;19.41;61.39;101466.38;5093277;28;20101;-67
2022/07/18 11:32:04;;;;;;;4.13;1.50;;;;;;;19.43;62.04;101467.00;5094522;28;20048;-68
2022/07/18 11:34:32;;;;;;;2.30;1.08;;;;;;;19.44;61.10;101471.38;5078632;28;20063;-66
2022/07/18 11:36:59;;;;;;;2.50;0.98;;;;;;;19.45;60.75;101459.53;5094248;28;20074;-67